createdAt,value
2022-10-22T00:02:19.884Z,46.37
2022-10-22T00:04:47.989Z,54.67
2022-10-22T00:07:15.446Z,47.87
2022-10-22T00:09:41.985Z,41.43
2022-10-22T00:12:08.773Z,55.10
2022-10-22T00:14:35.432Z,47.60
2022-10-22T00:17:02.010Z,42.43
2022-10-22T00:19:28.537Z,42.60
2022-10-22T00:21:55.130Z,58.23
2022-10-22T00:24:21.670Z,50.97
2022-10-22T00:26:48.133Z,51.37
2022-10-22T00:29:14.592Z,52.67
2022-10-22T00:31:41.080Z,51.20
2022-10-22T00:34:07.535Z,65.90
2022-10-22T00:36:34.047Z,58.00
2022-10-22T00:39:00.493Z,52.07
2022-10-22T00:41:26.964Z,57.33
2022-10-22T00:44:02.614Z,46.77
2022-10-22T00:46:29.505Z,64.73
2022-10-22T00:48:57.398Z,50.73
2022-10-22T00:51:26.441Z,62.47
2022-10-22T00:53:56.138Z,38.53
2022-10-22T00:56:23.853Z,50.90
2022-10-22T00:58:55.455Z,92.27
2022-10-22T01:01:27.530Z,69.73
2022-10-22T01:03:54.452Z,74.73
2022-10-22T01:06:27.252Z,48.77
2022-10-22T01:09:33.479Z,46.60
2022-10-22T01:12:29.514Z,45.80
2022-10-22T01:15:05.160Z,52.77
2022-10-22T01:17:58.129Z,42.63
2022-10-22T01:20:49.484Z,71.93
2022-10-22T01:23:37.850Z,47.90
2022-10-22T01:26:07.245Z,59.47
2022-10-22T01:28:50.132Z,50.10
2022-10-22T01:31:18.250Z,56.03
2022-10-22T01:33:46.086Z,57.47
2022-10-22T01:36:13.116Z,63.53
2022-10-22T01:38:40.071Z,65.23
2022-10-22T01:41:07.284Z,54.10
2022-10-22T01:43:33.840Z,60.83
2022-10-22T01:46:03.242Z,58.17
2022-10-22T01:48:57.970Z,59.93
2022-10-22T01:52:06.810Z,48.50
2022-10-22T01:54:41.894Z,53.57
2022-10-22T01:57:08.403Z,63.30
2022-10-22T01:59:45.571Z,56.00
2022-10-22T02:02:33.552Z,60.97
2022-10-22T02:05:13.421Z,70.43
2022-10-22T02:07:44.348Z,71.10
2022-10-22T02:10:11.950Z,59.37
2022-10-22T02:12:39.608Z,58.10
2022-10-22T02:15:06.943Z,53.60
2022-10-22T02:17:35.266Z,60.20
2022-10-22T02:20:16.568Z,86.97
2022-10-22T02:22:43.598Z,63.90
2022-10-22T02:25:11.101Z,62.63
2022-10-22T02:27:50.525Z,57.43
2022-10-22T02:30:19.298Z,63.67
2022-10-22T02:32:58.029Z,73.03
2022-10-22T02:35:26.844Z,91.87
2022-10-22T02:37:54.300Z,56.90
2022-10-22T02:40:21.317Z,99.50
2022-10-22T02:42:48.972Z,58.10
2022-10-22T02:45:16.658Z,52.67
2022-10-22T02:47:43.193Z,49.40
2022-10-22T02:50:10.505Z,48.57
2022-10-22T02:52:37.799Z,51.23
2022-10-22T02:55:05.440Z,42.17
2022-10-22T02:57:32.159Z,46.87
2022-10-22T02:59:58.623Z,51.03
2022-10-22T03:02:25.145Z,48.53
2022-10-22T03:04:51.598Z,43.23
2022-10-22T03:07:18.104Z,52.03
2022-10-22T03:09:44.612Z,141.33
2022-10-22T03:12:11.135Z,56.47
2022-10-22T03:14:37.564Z,38.10
2022-10-22T03:17:04.033Z,44.27
2022-10-22T03:19:30.526Z,106.40
2022-10-22T03:22:01.427Z,45.70
2022-10-22T03:24:40.362Z,50.30
2022-10-22T03:27:06.848Z,38.27
2022-10-22T03:29:36.613Z,42.73
2022-10-22T03:32:03.481Z,37.30
2022-10-22T03:34:29.978Z,31.23
2022-10-22T03:36:57.654Z,39.80
2022-10-22T03:39:24.145Z,43.53
2022-10-22T03:41:51.441Z,65.73
2022-10-22T03:44:18.234Z,60.63
2022-10-22T03:46:45.019Z,89.53
2022-10-22T03:49:11.745Z,168.53
2022-10-22T03:51:38.280Z,79.97
2022-10-22T03:54:05.061Z,115.00
2022-10-22T03:56:31.555Z,201.77
2022-10-22T03:58:59.902Z,300.10
2022-10-22T04:01:27.698Z,360.27
2022-10-22T04:03:54.663Z,530.13
2022-10-22T04:06:21.431Z,280.70
2022-10-22T04:08:48.177Z,276.67
2022-10-22T04:11:15.766Z,248.60
2022-10-22T04:13:42.717Z,276.23
2022-10-22T04:16:19.490Z,259.43
2022-10-22T04:18:47.277Z,223.50
2022-10-22T04:21:15.435Z,365.87
2022-10-22T04:23:46.989Z,254.80
2022-10-22T04:26:13.952Z,247.43
2022-10-22T04:28:40.839Z,193.23
2022-10-22T04:31:09.290Z,227.73
2022-10-22T04:33:35.849Z,219.23
2022-10-22T04:36:10.001Z,196.23
2022-10-22T04:38:36.449Z,242.63
2022-10-22T04:41:16.941Z,328.37
2022-10-22T04:43:44.252Z,273.77
2022-10-22T04:46:11.859Z,200.90
2022-10-22T04:48:40.018Z,231.90
2022-10-22T04:51:07.927Z,316.93
2022-10-22T04:53:37.742Z,223.07
2022-10-22T04:56:13.419Z,466.37
2022-10-22T04:58:39.922Z,340.03
2022-10-22T05:01:20.622Z,360.10
2022-10-22T05:03:49.101Z,163.27
2022-10-22T05:06:15.996Z,299.27
2022-10-22T05:08:43.598Z,121.33
2022-10-22T05:11:15.306Z,270.30
2022-10-22T05:13:41.832Z,210.47
2022-10-22T05:16:08.406Z,266.57
2022-10-22T05:18:39.356Z,260.30
2022-10-22T05:21:09.905Z,289.70
2022-10-22T05:23:36.380Z,386.20
2022-10-22T05:26:07.408Z,295.67
2022-10-22T05:28:34.527Z,251.03
2022-10-22T05:31:01.615Z,1081.03
2022-10-22T05:33:30.005Z,192.77
2022-10-22T05:35:56.925Z,220.43
2022-10-22T05:38:23.917Z,93.93
2022-10-22T05:41:00.881Z,181.27
2022-10-22T05:43:27.740Z,86.00
2022-10-22T05:45:54.205Z,89.83
2022-10-22T05:48:20.686Z,183.40
2022-10-22T05:50:50.665Z,116.97
2022-10-22T05:53:18.552Z,148.80
2022-10-22T05:55:45.676Z,187.20
2022-10-22T05:58:12.620Z,142.53
2022-10-22T06:00:39.129Z,170.80
2022-10-22T06:03:05.615Z,133.43
2022-10-22T06:05:36.172Z,198.40
2022-10-22T06:08:02.752Z,154.07
2022-10-22T06:10:29.205Z,173.90
2022-10-22T06:12:55.667Z,141.27
2022-10-22T06:15:22.104Z,80.80
2022-10-22T06:17:48.647Z,142.27
2022-10-22T06:20:15.223Z,145.33
2022-10-22T06:22:41.814Z,129.40
2022-10-22T06:25:08.910Z,151.23
2022-10-22T06:27:35.420Z,109.33
2022-10-22T06:30:01.877Z,212.43
2022-10-22T06:32:28.361Z,139.60
2022-10-22T06:34:54.809Z,173.30
2022-10-22T06:37:21.285Z,251.87
2022-10-22T06:39:47.709Z,184.10
2022-10-22T06:42:14.529Z,138.33
2022-10-22T06:44:40.985Z,109.30
2022-10-22T06:47:07.477Z,69.13
2022-10-22T06:49:33.961Z,85.30
2022-10-22T06:52:00.420Z,191.47
2022-10-22T06:54:26.868Z,139.30
2022-10-22T06:56:53.364Z,168.47
2022-10-22T06:59:19.791Z,129.87
2022-10-22T07:01:46.358Z,71.37
2022-10-22T07:04:12.941Z,159.17
2022-10-22T07:06:39.428Z,145.10
2022-10-22T07:09:05.998Z,187.20
2022-10-22T07:11:43.941Z,186.73
2022-10-22T07:14:11.096Z,137.67
2022-10-22T07:16:37.924Z,193.23
2022-10-22T07:19:05.157Z,169.57
2022-10-22T07:21:32.030Z,186.80
2022-10-22T07:23:59.318Z,149.13
2022-10-22T07:26:28.502Z,167.73
2022-10-22T07:28:55.064Z,170.43
2022-10-22T07:31:21.504Z,134.27
2022-10-22T07:33:48.056Z,148.03
2022-10-22T07:36:18.037Z,165.53
2022-10-22T07:38:46.609Z,188.97
2022-10-22T07:41:14.597Z,159.37
2022-10-22T07:43:41.140Z,180.13
2022-10-22T07:46:08.822Z,162.60
2022-10-22T07:48:36.519Z,233.40
2022-10-22T07:51:03.250Z,160.27
2022-10-22T07:53:30.124Z,145.77
2022-10-22T07:55:56.884Z,156.80
2022-10-22T07:58:23.801Z,148.60
2022-10-22T08:00:50.921Z,145.53
2022-10-22T08:03:18.064Z,149.53
2022-10-22T08:05:44.505Z,94.83
2022-10-22T08:08:12.138Z,130.87
2022-10-22T08:10:39.052Z,102.10
2022-10-22T08:13:05.945Z,114.00
2022-10-22T08:15:32.404Z,98.33
2022-10-22T08:17:58.869Z,121.50
2022-10-22T08:20:25.316Z,125.53
2022-10-22T08:22:51.954Z,103.30
2022-10-22T08:25:18.973Z,95.83
2022-10-22T08:27:45.837Z,97.13
2022-10-22T08:30:13.101Z,82.37
2022-10-22T08:32:39.668Z,83.43
2022-10-22T08:35:06.330Z,134.77
2022-10-22T08:37:32.934Z,87.87
2022-10-22T08:39:59.415Z,109.83
2022-10-22T08:42:35.180Z,89.87
2022-10-22T08:45:20.619Z,82.00
2022-10-22T08:48:09.023Z,86.27
2022-10-22T08:50:45.941Z,68.73
2022-10-22T08:53:21.685Z,66.70
2022-10-22T08:55:49.960Z,94.83
2022-10-22T08:58:31.552Z,94.00
2022-10-22T09:01:13.838Z,93.40
2022-10-22T09:03:51.233Z,71.37
2022-10-22T09:06:22.033Z,67.73
2022-10-22T09:08:48.759Z,73.67
2022-10-22T09:11:27.511Z,64.80
2022-10-22T09:13:55.958Z,47.77
2022-10-22T09:16:31.421Z,52.37
2022-10-22T09:19:18.547Z,50.43
2022-10-22T09:22:30.919Z,52.40
2022-10-22T09:25:20.965Z,52.60
2022-10-22T09:27:48.253Z,53.27
2022-10-22T09:30:21.913Z,39.83
2022-10-22T09:32:52.230Z,42.97
2022-10-22T09:35:23.040Z,40.73
2022-10-22T09:37:51.929Z,36.17
2022-10-22T09:40:18.895Z,34.10
2022-10-22T09:42:47.232Z,32.87
2022-10-22T09:45:23.567Z,36.13
2022-10-22T09:48:04.813Z,31.30
2022-10-22T09:50:44.917Z,31.70
2022-10-22T09:53:13.475Z,30.03
2022-10-22T09:55:41.809Z,31.47
2022-10-22T09:58:11.580Z,27.33
2022-10-22T10:00:44.721Z,25.53
2022-10-22T10:03:19.503Z,26.23
2022-10-22T10:05:52.816Z,24.17
2022-10-22T10:08:19.615Z,26.00
2022-10-22T10:10:52.539Z,22.80
2022-10-22T10:13:57.357Z,22.67
2022-10-22T10:16:30.203Z,22.27
2022-10-22T10:18:57.750Z,23.90
2022-10-22T10:21:27.194Z,22.27
2022-10-22T10:24:31.314Z,23.90
2022-10-22T10:27:15.974Z,20.87
2022-10-22T10:30:24.350Z,22.93
2022-10-22T10:33:05.837Z,23.87
2022-10-22T10:35:55.188Z,24.03
2022-10-22T10:38:31.393Z,21.57
2022-10-22T10:41:07.581Z,18.47
2022-10-22T10:43:44.040Z,19.20
2022-10-22T10:46:20.300Z,16.60
2022-10-22T10:48:59.793Z,20.63
2022-10-22T10:51:36.195Z,14.37
2022-10-22T10:54:21.488Z,16.57
2022-10-22T10:56:53.442Z,14.53
2022-10-22T10:59:41.901Z,12.67
2022-10-22T11:02:08.325Z,15.00
2022-10-22T11:04:53.149Z,15.20
2022-10-22T11:07:34.655Z,11.53
2022-10-22T11:10:28.123Z,12.60
2022-10-22T11:12:59.530Z,10.90
2022-10-22T11:15:36.033Z,9.80
2022-10-22T11:18:25.464Z,8.80
2022-10-22T11:21:04.091Z,11.80
2022-10-22T11:23:38.394Z,13.03
2022-10-22T11:26:08.023Z,11.33
2022-10-22T11:28:40.212Z,9.40
2022-10-22T11:31:19.184Z,11.30
2022-10-22T11:34:00.540Z,10.80
2022-10-22T11:36:37.162Z,13.90
2022-10-22T11:39:04.493Z,9.87
2022-10-22T11:41:32.364Z,9.77
2022-10-22T11:44:12.679Z,8.90
2022-10-22T11:46:57.325Z,10.70
2022-10-22T11:49:28.776Z,8.43
2022-10-22T11:52:26.275Z,8.63
2022-10-22T11:54:58.337Z,7.57
2022-10-22T11:57:38.534Z,8.23
2022-10-22T12:00:41.275Z,9.00
2022-10-22T12:03:42.924Z,10.07
2022-10-22T12:06:12.397Z,10.70
2022-10-22T12:08:57.314Z,9.60
2022-10-22T12:11:25.255Z,10.30
2022-10-22T12:14:03.852Z,7.90
2022-10-22T12:16:54.778Z,11.03
2022-10-22T12:19:22.672Z,8.93
2022-10-22T12:21:54.188Z,8.47
2022-10-22T12:24:23.889Z,10.57
2022-10-22T12:26:52.667Z,5.23
2022-10-22T12:29:26.841Z,10.13
2022-10-22T12:31:55.100Z,8.30
2022-10-22T12:34:24.081Z,8.33
2022-10-22T12:36:52.451Z,10.17
2022-10-22T12:39:26.172Z,8.43
2022-10-22T12:41:54.010Z,8.87
2022-10-22T12:44:20.623Z,8.90
2022-10-22T12:46:52.953Z,8.73
2022-10-22T12:49:35.493Z,8.03
2022-10-22T12:52:10.821Z,7.70
2022-10-22T12:54:40.061Z,12.40
2022-10-22T12:57:10.210Z,12.73
2022-10-22T12:59:38.297Z,10.93
2022-10-22T13:02:16.243Z,15.47
2022-10-22T13:04:42.795Z,9.67
2022-10-22T13:07:12.271Z,18.20
2022-10-22T13:09:40.181Z,7.23
2022-10-22T13:12:08.586Z,14.20
2022-10-22T13:14:38.178Z,9.37
2022-10-22T13:17:08.065Z,9.17
2022-10-22T13:19:54.177Z,8.33
2022-10-22T13:22:32.809Z,11.30
2022-10-22T13:25:14.674Z,13.60
2022-10-22T13:27:49.038Z,7.43
2022-10-22T13:30:25.092Z,9.43
2022-10-22T13:33:00.128Z,12.43
2022-10-22T13:35:29.747Z,8.60
2022-10-22T13:37:56.196Z,11.30
2022-10-22T13:40:22.896Z,11.50
2022-10-22T13:42:49.464Z,10.27
2022-10-22T13:45:16.630Z,11.43
2022-10-22T13:47:48.371Z,12.53
2022-10-22T13:50:17.620Z,9.30
2022-10-22T13:52:48.028Z,13.50
2022-10-22T13:55:25.500Z,8.17
2022-10-22T13:57:53.614Z,11.17
2022-10-22T14:00:21.693Z,10.53
2022-10-22T14:02:50.273Z,15.20
2022-10-22T14:05:17.847Z,9.77
2022-10-22T14:07:44.846Z,10.50
2022-10-22T14:10:22.094Z,14.03
2022-10-22T14:12:52.445Z,13.90
2022-10-22T14:15:24.019Z,12.77
2022-10-22T14:17:54.890Z,13.97
2022-10-22T14:20:23.386Z,13.57
2022-10-22T14:22:51.099Z,11.47
2022-10-22T14:25:20.279Z,13.67
2022-10-22T14:27:47.276Z,13.27
2022-10-22T14:30:15.865Z,15.97
2022-10-22T14:32:43.100Z,19.67
2022-10-22T14:35:14.466Z,13.27
2022-10-22T14:37:40.963Z,22.10
2022-10-22T14:40:08.979Z,12.43
2022-10-22T14:42:41.735Z,11.87
2022-10-22T14:45:21.839Z,10.67
2022-10-22T14:47:49.215Z,9.67
2022-10-22T14:50:16.320Z,10.60
2022-10-22T14:52:43.750Z,11.87
2022-10-22T14:55:12.235Z,10.93
2022-10-22T14:57:39.681Z,9.63
2022-10-22T15:00:09.070Z,9.07
2022-10-22T15:02:35.543Z,12.73
2022-10-22T15:05:01.987Z,13.43
2022-10-22T15:07:28.508Z,10.27
2022-10-22T15:09:54.971Z,10.17
2022-10-22T15:12:21.476Z,15.33
2022-10-22T15:14:48.328Z,14.90
2022-10-22T15:17:15.837Z,14.97
2022-10-22T15:19:43.621Z,11.60
2022-10-22T15:22:13.172Z,7.93
2022-10-22T15:24:40.418Z,8.07
2022-10-22T15:27:06.950Z,10.60
2022-10-22T15:29:33.552Z,8.53
2022-10-22T15:32:00.660Z,11.07
2022-10-22T15:34:29.385Z,9.80
2022-10-22T15:36:57.903Z,9.53
2022-10-22T15:39:24.692Z,9.40
2022-10-22T15:41:51.745Z,10.10
2022-10-22T15:44:20.509Z,12.40
2022-10-22T15:46:47.029Z,14.27
2022-10-22T15:49:14.753Z,10.40
2022-10-22T15:51:41.236Z,14.73
2022-10-22T15:54:13.176Z,14.70
2022-10-22T15:56:39.803Z,11.30
2022-10-22T15:59:06.565Z,14.23
2022-10-22T16:01:34.205Z,14.93
2022-10-22T16:04:02.683Z,14.87
2022-10-22T16:06:34.633Z,12.70
2022-10-22T16:09:04.049Z,11.00
2022-10-22T16:11:30.896Z,11.77
2022-10-22T16:13:58.747Z,9.87
2022-10-22T16:16:27.282Z,12.20
2022-10-22T16:18:53.901Z,12.37
2022-10-22T16:21:21.608Z,12.23
2022-10-22T16:23:48.810Z,9.90
2022-10-22T16:26:16.423Z,14.27
2022-10-22T16:28:43.629Z,10.07
2022-10-22T16:31:12.428Z,12.97
2022-10-22T16:33:43.083Z,18.23
2022-10-22T16:36:14.456Z,17.10
2022-10-22T16:38:41.072Z,9.80
2022-10-22T16:41:11.801Z,14.30
2022-10-22T16:43:38.870Z,17.00
2022-10-22T16:46:06.088Z,12.60
2022-10-22T16:48:33.227Z,10.50
2022-10-22T16:51:00.791Z,20.40
2022-10-22T16:53:27.265Z,18.23
2022-10-22T16:55:53.752Z,11.80
2022-10-22T16:58:20.184Z,12.07
2022-10-22T17:00:46.670Z,11.33
2022-10-22T17:03:13.318Z,16.97
2022-10-22T17:05:39.802Z,9.07
2022-10-22T17:08:06.287Z,12.47
2022-10-22T17:10:32.772Z,9.27
2022-10-22T17:12:59.257Z,11.50
2022-10-22T17:15:25.848Z,16.70
2022-10-22T17:17:53.753Z,9.20
2022-10-22T17:20:20.232Z,10.27
2022-10-22T17:22:47.041Z,8.17
2022-10-22T17:25:19.950Z,7.77
2022-10-22T17:27:46.386Z,7.00
2022-10-22T17:30:15.847Z,9.63
2022-10-22T17:32:44.110Z,8.87
2022-10-22T17:35:12.372Z,8.43
2022-10-22T17:37:39.241Z,5.23
2022-10-22T17:40:06.617Z,5.93
2022-10-22T17:42:33.145Z,5.47
2022-10-22T17:44:59.698Z,4.30
2022-10-22T17:47:26.163Z,8.20
2022-10-22T17:49:53.787Z,6.17
2022-10-22T17:52:20.337Z,6.47
2022-10-22T17:54:48.462Z,4.70
2022-10-22T17:57:14.899Z,5.77
2022-10-22T17:59:41.367Z,6.37
2022-10-22T18:02:10.331Z,4.30
2022-10-22T18:04:36.793Z,3.93
2022-10-22T18:07:03.248Z,6.57
2022-10-22T18:09:29.728Z,5.87
2022-10-22T18:11:56.200Z,7.67
2022-10-22T18:14:23.354Z,5.73
2022-10-22T18:16:50.592Z,7.00
2022-10-22T18:19:19.560Z,8.73
2022-10-22T18:21:46.599Z,9.23
2022-10-22T18:24:15.278Z,8.13
2022-10-22T18:26:42.329Z,10.77
2022-10-22T18:29:10.578Z,9.07
2022-10-22T18:31:37.181Z,10.17
2022-10-22T18:34:03.686Z,12.20
2022-10-22T18:36:30.158Z,9.90
2022-10-22T18:38:58.961Z,12.17
2022-10-22T18:41:26.782Z,11.13
2022-10-22T18:43:58.529Z,9.50
2022-10-22T18:46:25.701Z,9.80
2022-10-22T18:48:53.526Z,10.30
2022-10-22T18:51:20.388Z,9.00
2022-10-22T18:53:59.197Z,12.83
2022-10-22T18:56:36.564Z,7.97
2022-10-22T18:59:03.037Z,13.93
2022-10-22T19:01:29.698Z,9.10
2022-10-22T19:03:56.668Z,11.13
2022-10-22T19:06:33.312Z,8.20
2022-10-22T19:09:04.291Z,6.97
2022-10-22T19:11:31.134Z,9.90
2022-10-22T19:13:58.083Z,9.80
2022-10-22T19:16:24.631Z,10.60
2022-10-22T19:18:52.362Z,12.73
2022-10-22T19:21:20.036Z,8.70
2022-10-22T19:23:46.601Z,11.43
2022-10-22T19:26:16.302Z,12.50
2022-10-22T19:28:43.800Z,16.07
2022-10-22T19:31:12.742Z,13.13
2022-10-22T19:33:40.080Z,16.03
2022-10-22T19:36:08.722Z,15.40
2022-10-22T19:38:37.815Z,14.17
2022-10-22T19:41:09.373Z,15.73
2022-10-22T19:43:36.033Z,15.73
2022-10-22T19:46:04.125Z,15.57
2022-10-22T19:48:30.653Z,16.00
2022-10-22T19:51:17.881Z,15.77
2022-10-22T19:53:44.859Z,17.50
2022-10-22T19:56:12.149Z,15.97
2022-10-22T19:58:39.300Z,18.73
2022-10-22T20:01:07.188Z,14.73
2022-10-22T20:03:36.225Z,16.07
2022-10-22T20:06:05.319Z,19.50
2022-10-22T20:08:34.458Z,15.83
2022-10-22T20:11:01.028Z,14.90
2022-10-22T20:13:27.641Z,17.50
2022-10-22T20:15:54.166Z,16.33
2022-10-22T20:18:22.417Z,17.37
2022-10-22T20:20:49.363Z,15.50
2022-10-22T20:23:16.021Z,16.30
2022-10-22T20:25:44.258Z,18.53
2022-10-22T20:28:11.471Z,16.23
2022-10-22T20:30:42.708Z,21.27
2022-10-22T20:33:09.348Z,17.77
2022-10-22T20:35:37.434Z,21.07
2022-10-22T20:38:05.269Z,23.17
2022-10-22T20:40:32.710Z,24.73
2022-10-22T20:43:00.728Z,21.27
2022-10-22T20:45:28.116Z,16.17
2022-10-22T20:48:02.146Z,16.10
2022-10-22T20:50:31.985Z,10.50
2022-10-22T20:52:59.048Z,15.17
2022-10-22T20:55:25.863Z,15.07
2022-10-22T20:57:52.498Z,14.93
2022-10-22T21:00:22.200Z,16.33
2022-10-22T21:02:50.358Z,21.97
2022-10-22T21:05:17.277Z,19.13
2022-10-22T21:07:44.163Z,21.33
2022-10-22T21:10:11.573Z,21.67
2022-10-22T21:12:42.036Z,19.33
2022-10-22T21:15:12.509Z,21.83
2022-10-22T21:17:40.863Z,19.77
2022-10-22T21:20:08.278Z,16.83
2022-10-22T21:22:35.464Z,22.67
2022-10-22T21:25:02.184Z,19.03
2022-10-22T21:27:28.686Z,18.30
2022-10-22T21:29:55.143Z,17.73
2022-10-22T21:32:21.590Z,17.30
2022-10-22T21:34:48.053Z,26.40
2022-10-22T21:37:14.504Z,20.23
2022-10-22T21:39:42.148Z,18.70
2022-10-22T21:42:09.022Z,22.03
2022-10-22T21:44:35.490Z,15.87
2022-10-22T21:47:02.768Z,23.93
2022-10-22T21:49:29.207Z,19.37
2022-10-22T21:51:55.750Z,15.60
2022-10-22T21:54:22.207Z,16.10
2022-10-22T21:56:49.105Z,16.30
2022-10-22T21:59:15.887Z,16.70
2022-10-22T22:01:42.472Z,20.23
2022-10-22T22:04:09.024Z,20.23
2022-10-22T22:06:35.554Z,18.40
2022-10-22T22:09:03.458Z,17.57
2022-10-22T22:11:30.376Z,14.20
2022-10-22T22:13:57.810Z,21.23
2022-10-22T22:16:28.605Z,16.57
2022-10-22T22:18:57.196Z,14.83
2022-10-22T22:21:23.781Z,19.97
2022-10-22T22:23:51.063Z,13.50
2022-10-22T22:26:25.224Z,19.70
2022-10-22T22:28:55.027Z,18.27
2022-10-22T22:31:25.953Z,16.33
2022-10-22T22:34:01.335Z,24.53
2022-10-22T22:36:27.920Z,19.33
2022-10-22T22:38:56.293Z,19.57
2022-10-22T22:41:22.933Z,21.10
2022-10-22T22:43:49.528Z,19.20
2022-10-22T22:46:17.291Z,23.23
2022-10-22T22:48:43.834Z,16.53
2022-10-22T22:51:10.495Z,28.13
2022-10-22T22:53:36.976Z,21.53
2022-10-22T22:56:10.413Z,20.33
2022-10-22T22:58:38.347Z,20.87
2022-10-22T23:01:15.506Z,25.47
2022-10-22T23:03:42.933Z,16.93
2022-10-22T23:06:09.700Z,21.10
2022-10-22T23:08:37.515Z,19.90
2022-10-22T23:11:10.108Z,20.00
2022-10-22T23:13:37.151Z,20.27
2022-10-22T23:16:08.432Z,22.20
2022-10-22T23:18:35.273Z,21.30
2022-10-22T23:21:12.968Z,20.70
2022-10-22T23:23:42.844Z,21.57
2022-10-22T23:26:12.099Z,24.77
2022-10-22T23:28:38.592Z,23.33
2022-10-22T23:31:05.270Z,21.63
2022-10-22T23:33:31.750Z,24.80
2022-10-22T23:36:01.317Z,25.17
2022-10-22T23:38:28.215Z,21.97
2022-10-22T23:40:56.570Z,20.33
2022-10-22T23:43:24.304Z,21.27
2022-10-22T23:45:50.989Z,24.40
2022-10-22T23:48:17.874Z,21.40
2022-10-22T23:50:44.532Z,24.53
2022-10-22T23:53:11.172Z,21.10
2022-10-22T23:55:41.482Z,21.73
2022-10-22T23:58:08.578Z,24.80
